Time;durP1;ratioP1;P1;durP2;ratioP2;P2;SDS_P1;SDS_P2;PMS_P1;PMS_P2;Temp;Humidity;BMP_temperature;BMP_pressure;BME280_temperature;BME280_humidity;BME280_pressure;Samples;Min_cycle;Max_cycle;Signal;HPM_P1;HPM_P2
2021/12/04 00:01:48;;;;;;;7.05;3.83;;;3.20;99.90;;;;;;5002193;28;20030;-54
2021/12/04 00:04:19;;;;;;;5.63;3.53;;;3.20;99.90;;;;;;5004256;28;20026;-57
2021/12/04 00:06:44;;;;;;;7.28;3.53;;;3.20;99.90;;;;;;4996988;28;20034;-56
2021/12/04 00:09:12;;;;;;;5.90;3.42;;;3.20;99.90;;;;;;4993472;28;20030;-55
2021/12/04 00:11:40;;;;;;;5.78;3.67;;;3.20;99.90;;;;;;4997931;28;20026;-57
2021/12/04 00:14:06;;;;;;;5.50;3.60;;;3.20;99.90;;;;;;5002750;28;20022;-56
2021/12/04 00:16:31;;;;;;;5.65;3.40;;;3.20;99.90;;;;;;5013297;28;20387;-56
2021/12/04 00:18:57;;;;;;;5.05;3.15;;;3.20;99.90;;;;;;5010037;28;20642;-56
2021/12/04 00:21:23;;;;;;;5.50;3.47;;;3.30;99.90;;;;;;4996533;28;20037;-54
2021/12/04 00:23:48;;;;;;;4.32;3.03;;;3.30;99.90;;;;;;4997280;28;20150;-55
2021/12/04 00:26:14;;;;;;;6.72;3.70;;;3.30;99.90;;;;;;4994496;28;20495;-56
2021/12/04 00:28:39;;;;;;;6.32;3.45;;;3.30;99.90;;;;;;5002232;28;20048;-60
2021/12/04 00:31:08;;;;;;;5.38;3.38;;;3.30;99.90;;;;;;4995906;28;20034;-57
2021/12/04 00:33:36;;;;;;;5.63;3.47;;;3.30;99.90;;;;;;5006449;28;20499;-57
2021/12/04 00:36:06;;;;;;;5.35;3.40;;;3.30;99.90;;;;;;5009017;28;20033;-55
2021/12/04 00:49:19;;;;;;;7.35;4.22;;;3.30;99.90;;;;;;5008575;28;20534;-58
2021/12/04 00:51:54;;;;;;;8.85;4.97;;;3.30;99.90;;;;;;4998651;28;20089;-56
2021/12/04 00:54:20;;;;;;;10.38;5.68;;;3.30;99.90;;;;;;5015220;28;20032;-54
2021/12/04 00:56:47;;;;;;;7.97;4.43;;;3.30;99.90;;;;;;5005055;28;20022;-59
2021/12/04 00:59:14;;;;;;;4.78;3.50;;;3.40;99.90;;;;;;5017446;28;20544;-60
2021/12/04 01:01:42;;;;;;;8.27;4.70;;;3.30;99.90;;;;;;5016832;28;20056;-54
2021/12/04 01:04:13;;;;;;;5.55;4.28;;;3.40;99.90;;;;;;5016182;28;20578;-54
2021/12/04 01:06:40;;;;;;;7.35;4.43;;;3.40;99.90;;;;;;5014163;28;20517;-57
2021/12/04 01:09:07;;;;;;;7.72;4.28;;;3.40;99.90;;;;;;5003375;28;20120;-57
2021/12/04 01:11:34;;;;;;;5.28;3.25;;;3.40;99.90;;;;;;5005508;28;20027;-57
2021/12/04 01:13:59;;;;;;;6.80;3.95;;;3.40;99.90;;;;;;5008562;28;20388;-59
2021/12/04 01:16:25;;;;;;;4.68;3.53;;;3.40;99.90;;;;;;5022322;28;20364;-59
2021/12/04 01:18:51;;;;;;;4.35;3.17;;;3.40;99.90;;;;;;5021751;28;20079;-57
2021/12/04 01:21:16;;;;;;;6.65;4.30;;;3.40;99.90;;;;;;5009740;28;20033;-57
2021/12/04 01:23:42;;;;;;;4.97;3.25;;;3.40;99.90;;;;;;5018513;28;20087;-56
2021/12/04 01:26:07;;;;;;;6.53;4.15;;;3.40;99.90;;;;;;5020168;28;20562;-58
2021/12/04 01:28:34;;;;;;;5.15;3.85;;;3.40;99.90;;;;;;5022804;28;20038;-57
2021/12/04 01:31:00;;;;;;;7.10;3.70;;;3.40;99.90;;;;;;5001168;28;20121;-56
2021/12/04 01:33:27;;;;;;;7.15;4.30;;;3.50;99.90;;;;;;5015727;28;20112;-53
2021/12/04 01:35:52;;;;;;;4.95;3.60;;;3.40;99.90;;;;;;5007374;28;20494;-58
2021/12/04 01:38:18;;;;;;;4.75;3.50;;;3.50;99.90;;;;;;4992220;28;20034;-55
2021/12/04 01:40:44;;;;;;;4.78;3.22;;;3.50;99.90;;;;;;5017282;28;20392;-54
2021/12/04 01:43:10;;;;;;;4.85;3.35;;;3.50;99.90;;;;;;5018117;28;20477;-54
2021/12/04 01:45:35;;;;;;;6.80;3.55;;;3.60;99.90;;;;;;5009039;28;20039;-56
2021/12/04 01:48:02;;;;;;;5.47;3.00;;;3.60;99.90;;;;;;5018125;28;20034;-57
2021/12/04 01:50:30;;;;;;;4.22;3.50;;;3.60;99.90;;;;;;4986561;28;20035;-56
2021/12/04 01:52:57;;;;;;;4.70;3.00;;;3.60;99.90;;;;;;5020688;28;20491;-55
2021/12/04 01:55:31;;;;;;;6.32;3.90;;;3.60;99.90;;;;;;5005811;28;20042;-50
2021/12/04 01:58:00;;;;;;;3.72;2.88;;;3.60;99.90;;;;;;5010017;28;20026;-52
2021/12/04 02:00:27;;;;;;;5.25;3.42;;;3.60;99.90;;;;;;5017951;28;20041;-57
2021/12/04 02:02:53;;;;;;;9.90;3.90;;;3.60;99.90;;;;;;5015451;28;20022;-58
2021/12/04 02:05:18;;;;;;;6.00;3.47;;;3.60;99.90;;;;;;5018724;28;20048;-52
2021/12/04 02:07:46;;;;;;;5.65;3.55;;;3.60;99.90;;;;;;5016310;28;20499;-58
2021/12/04 02:10:11;;;;;;;7.75;3.35;;;3.60;99.90;;;;;;4988894;28;20046;-59
2021/12/04 02:12:37;;;;;;;10.05;4.03;;;3.60;99.90;;;;;;5006544;28;20037;-56
2021/12/04 02:15:04;;;;;;;8.27;3.70;;;3.60;99.90;;;;;;5002917;28;20107;-60
2021/12/04 02:17:31;;;;;;;4.68;3.53;;;3.60;99.90;;;;;;5006406;28;20034;-58
2021/12/04 02:19:57;;;;;;;9.63;5.63;;;3.60;99.90;;;;;;4999648;28;20124;-56
2021/12/04 02:22:22;;;;;;;6.15;3.42;;;3.60;99.90;;;;;;5004243;28;20068;-56
2021/12/04 02:24:48;;;;;;;5.15;3.72;;;3.60;99.90;;;;;;5006614;28;20030;-56
2021/12/04 02:27:14;;;;;;;5.57;3.92;;;3.60;99.90;;;;;;5004444;28;20108;-59
2021/12/04 02:29:47;;;;;;;7.10;3.90;;;3.60;99.90;;;;;;5007145;28;20033;-55
2021/12/04 02:32:13;;;;;;;7.55;4.03;;;3.60;99.90;;;;;;5007888;28;20038;-57
2021/12/04 02:34:39;;;;;;;8.30;4.40;;;3.50;99.90;;;;;;5017132;28;20639;-58
2021/12/04 02:37:07;;;;;;;5.53;3.60;;;3.60;99.90;;;;;;5023583;28;20079;-55
2021/12/04 02:39:35;;;;;;;7.20;3.60;;;3.50;99.90;;;;;;5004204;28;20018;-58
2021/12/04 02:42:04;;;;;;;7.97;3.83;;;3.50;99.90;;;;;;5012839;28;20075;-56
2021/12/04 02:44:41;;;;;;;5.45;3.95;;;3.50;99.90;;;;;;5017157;28;20061;-51
2021/12/04 02:47:07;;;;;;;9.57;3.40;;;3.50;99.90;;;;;;5003945;28;20091;-55
2021/12/04 02:49:33;;;;;;;4.97;3.45;;;3.50;99.90;;;;;;4990546;28;20054;-55
2021/12/04 02:52:07;;;;;;;4.13;3.10;;;3.50;99.90;;;;;;4995949;28;20053;-58
2021/12/04 02:54:34;;;;;;;5.25;3.47;;;3.60;99.90;;;;;;4999884;28;20446;-51
2021/12/04 02:57:00;;;;;;;5.53;3.42;;;3.60;99.90;;;;;;5001435;28;20487;-59
2021/12/04 02:59:26;;;;;;;6.60;3.58;;;3.60;99.90;;;;;;5005297;28;20625;-57
2021/12/04 03:01:54;;;;;;;5.72;3.10;;;3.50;99.90;;;;;;5013540;28;20105;-58
2021/12/04 03:04:23;;;;;;;5.72;3.08;;;3.50;99.90;;;;;;5005329;28;20030;-57
2021/12/04 03:06:48;;;;;;;4.55;3.13;;;3.50;99.90;;;;;;4985715;28;20034;-56
2021/12/04 03:09:14;;;;;;;7.18;3.08;;;3.50;99.90;;;;;;4996078;28;20038;-57
2021/12/04 03:11:41;;;;;;;5.10;2.95;;;3.50;99.90;;;;;;5009884;28;20403;-56
2021/12/04 03:14:07;;;;;;;4.35;2.95;;;3.60;99.90;;;;;;4997180;28;20041;-59
2021/12/04 03:16:35;;;;;;;3.67;2.50;;;3.50;99.90;;;;;;5005963;28;20025;-56
2021/12/04 03:19:02;;;;;;;4.68;3.17;;;3.60;99.90;;;;;;5001420;28;20451;-56
2021/12/04 03:21:27;;;;;;;4.38;2.78;;;3.60;99.90;;;;;;5008692;28;20038;-54
2021/12/04 03:26:20;;;;;;;3.25;2.58;;;3.60;99.90;;;;;;4994823;28;20058;-56
2021/12/04 03:28:45;;;;;;;4.43;3.00;;;3.60;99.90;;;;;;5006256;28;20033;-57
2021/12/04 03:31:24;;;;;;;6.10;3.08;;;3.60;99.90;;;;;;4996364;28;20053;-56
2021/12/04 03:42:02;;;;;;;4.18;3.10;;;3.60;99.90;;;;;;5015411;28;20037;-58
2021/12/04 03:44:28;;;;;;;4.53;2.50;;;3.60;99.90;;;;;;5004441;28;20034;-58
2021/12/04 03:46:54;;;;;;;5.75;3.00;;;3.60;99.90;;;;;;5001155;28;20076;-60
2021/12/04 03:49:19;;;;;;;4.35;2.70;;;3.50;99.90;;;;;;5002935;28;20406;-56
2021/12/04 03:51:45;;;;;;;4.22;2.90;;;3.50;99.90;;;;;;5010398;28;20026;-57
2021/12/04 03:54:10;;;;;;;4.18;2.83;;;3.50;99.90;;;;;;5011646;28;20399;-50
2021/12/04 03:56:36;;;;;;;4.00;2.85;;;3.60;99.90;;;;;;5001657;28;20034;-57
2021/12/04 03:59:02;;;;;;;4.00;2.38;;;3.60;99.90;;;;;;5004005;28;20022;-54
2021/12/04 04:01:28;;;;;;;4.20;2.75;;;3.60;99.90;;;;;;5002938;28;20041;-59
2021/12/04 04:03:54;;;;;;;6.13;2.58;;;3.50;99.90;;;;;;5003228;28;20084;-58
2021/12/04 04:06:19;;;;;;;3.83;2.80;;;3.60;99.90;;;;;;5003296;28;20096;-60
2021/12/04 04:08:45;;;;;;;3.63;2.83;;;3.50;99.90;;;;;;4999223;28;20100;-57
2021/12/04 04:11:11;;;;;;;4.68;3.15;;;3.60;99.90;;;;;;5005611;28;20133;-58
2021/12/04 04:13:41;;;;;;;6.57;3.20;;;3.50;99.90;;;;;;5004821;28;20097;-57
2021/12/04 04:16:06;;;;;;;5.15;2.80;;;3.60;99.90;;;;;;5000501;28;20026;-60
2021/12/04 04:18:32;;;;;;;5.40;3.60;;;3.60;99.90;;;;;;4999567;28;20028;-58
2021/12/04 04:20:58;;;;;;;3.95;2.63;;;3.60;99.90;;;;;;5007539;28;20104;-60
2021/12/04 04:23:24;;;;;;;3.13;2.50;;;3.60;99.90;;;;;;4996444;28;20036;-57
2021/12/04 04:25:50;;;;;;;7.03;3.08;;;3.60;99.90;;;;;;4987556;23;20082;-59
2021/12/04 04:28:15;;;;;;;5.00;3.20;;;3.60;99.90;;;;;;4949958;28;20546;-58
2021/12/04 04:30:41;;;;;;;5.05;3.03;;;3.60;99.90;;;;;;4947425;28;20042;-59
2021/12/04 04:33:09;;;;;;;4.93;3.08;;;3.60;99.90;;;;;;4946391;28;20106;-59
2021/12/04 04:35:35;;;;;;;7.35;3.20;;;3.60;99.90;;;;;;4950676;28;20477;-59
2021/12/04 05:12:51;;;;;;;6.28;2.95;;;3.60;99.90;;;;;;4945176;28;20035;-59
2021/12/04 05:18:11;;;;;;;3.15;2.30;;;3.60;99.90;;;;;;4944418;28;20436;-59
2021/12/04 05:20:38;;;;;;;3.25;2.30;;;3.60;99.90;;;;;;4950864;28;20027;-59
2021/12/04 05:23:10;;;;;;;3.95;2.65;;;3.60;99.90;;;;;;4945810;28;20107;-58
2021/12/04 05:25:36;;;;;;;4.07;2.40;;;3.60;99.90;;;;;;4943783;28;20409;-58
2021/12/04 05:28:06;;;;;;;4.55;2.63;;;3.70;99.90;;;;;;4949944;28;20071;-56
2021/12/04 05:30:32;;;;;;;5.90;2.78;;;3.60;99.90;;;;;;4941291;28;20020;-59
2021/12/04 05:32:58;;;;;;;4.43;2.53;;;3.60;99.90;;;;;;4950130;28;20027;-58
2021/12/04 05:35:23;;;;;;;4.78;2.67;;;3.60;99.90;;;;;;4949845;28;20026;-59
2021/12/04 05:37:49;;;;;;;3.78;2.60;;;3.60;99.90;;;;;;4949696;28;20031;-59
2021/12/04 05:40:16;;;;;;;3.92;2.35;;;3.60;99.90;;;;;;4947853;28;20098;-58
2021/12/04 05:42:43;;;;;;;4.35;2.17;;;3.60;99.90;;;;;;4950527;28;20023;-58
2021/12/04 05:45:16;;;;;;;3.67;2.63;;;3.60;99.90;;;;;;4952874;28;20034;-58
2021/12/04 05:47:59;;;;;;;4.35;2.42;;;3.60;99.90;;;;;;4951052;28;20031;-59
2021/12/04 05:55:50;;;;;;;3.95;2.63;;;3.50;99.90;;;;;;4957452;28;20086;-57
2021/12/04 05:58:16;;;;;;;12.25;3.42;;;3.50;99.90;;;;;;4949697;28;20043;-57
2021/12/04 06:00:42;;;;;;;4.80;2.40;;;3.50;99.90;;;;;;4947275;28;20122;-58
2021/12/04 06:03:07;;;;;;;4.57;2.40;;;3.50;99.90;;;;;;4948578;28;20036;-58
2021/12/04 06:05:33;;;;;;;5.05;3.17;;;3.50;99.90;;;;;;4953538;28;20404;-58
2021/12/04 06:07:58;;;;;;;8.18;2.85;;;3.50;99.90;;;;;;4958150;28;20031;-58
2021/12/04 06:10:24;;;;;;;4.45;3.00;;;3.50;99.90;;;;;;4953395;28;20039;-57
2021/12/04 06:12:49;;;;;;;4.47;2.90;;;3.50;99.90;;;;;;4959740;28;20102;-58
2021/12/04 06:15:15;;;;;;;4.60;3.08;;;3.60;99.90;;;;;;4949335;28;20489;-57
2021/12/04 06:17:41;;;;;;;9.63;3.58;;;3.60;99.90;;;;;;4950154;28;20394;-58
2021/12/04 06:22:51;;;;;;;4.18;3.45;;;3.60;99.90;;;;;;4952301;28;20417;-58
2021/12/04 06:25:24;;;;;;;4.80;3.33;;;3.50;99.90;;;;;;4949479;28;20035;-58
2021/12/04 06:27:50;;;;;;;4.95;3.20;;;3.50;99.90;;;;;;4945387;28;20034;-57
2021/12/04 06:30:18;;;;;;;6.00;3.40;;;3.50;99.90;;;;;;4950436;28;20081;-58
2021/12/04 06:32:47;;;;;;;5.40;3.28;;;3.60;99.90;;;;;;4957404;28;20038;-59
2021/12/04 06:35:14;;;;;;;5.72;2.92;;;3.60;99.90;;;;;;4946692;28;20020;-62
2021/12/04 06:37:40;;;;;;;6.53;3.53;;;3.60;99.90;;;;;;4949859;28;20034;-58
2021/12/04 06:40:08;;;;;;;4.57;3.60;;;3.60;99.90;;;;;;4948548;28;20023;-59
2021/12/04 06:42:34;;;;;;;3.70;2.95;;;3.60;99.90;;;;;;4947190;28;20035;-59
2021/12/04 06:45:01;;;;;;;6.75;3.67;;;3.60;99.90;;;;;;4952318;28;20027;-60
2021/12/04 06:47:27;;;;;;;4.53;3.08;;;3.60;99.90;;;;;;4949060;28;20050;-59
2021/12/04 06:49:53;;;;;;;4.22;2.88;;;3.60;99.90;;;;;;4950121;28;20090;-59
2021/12/04 06:52:23;;;;;;;4.10;3.10;;;3.60;99.90;;;;;;4946780;28;20102;-59
2021/12/04 06:54:55;;;;;;;6.70;3.10;;;3.70;99.90;;;;;;4948395;28;20477;-59
2021/12/04 06:57:22;;;;;;;4.70;3.33;;;3.60;99.90;;;;;;4953429;28;20098;-60
2021/12/04 06:59:49;;;;;;;4.47;3.08;;;3.60;99.90;;;;;;4951468;28;20023;-59
2021/12/04 07:02:14;;;;;;;4.15;3.35;;;3.60;99.90;;;;;;4959018;28;20158;-55
2021/12/04 07:04:40;;;;;;;5.22;3.78;;;3.60;99.90;;;;;;4947923;28;20118;-59
2021/12/04 07:07:07;;;;;;;6.82;3.47;;;3.50;99.90;;;;;;4952457;28;20502;-60
2021/12/04 07:09:34;;;;;;;5.25;3.53;;;3.60;99.90;;;;;;4949262;28;20402;-59
2021/12/04 07:12:00;;;;;;;5.63;3.78;;;3.60;99.90;;;;;;4954125;28;20121;-58
2021/12/04 07:14:26;;;;;;;5.00;3.50;;;3.50;99.90;;;;;;4951149;28;20090;-59
2021/12/04 07:16:52;;;;;;;4.47;3.15;;;3.50;99.90;;;;;;4950959;28;20147;-59
2021/12/04 07:19:18;;;;;;;6.40;3.83;;;3.60;99.90;;;;;;4950029;28;20110;-59
2021/12/04 07:21:45;;;;;;;6.85;3.20;;;3.60;99.90;;;;;;4951128;28;20057;-59
2021/12/04 07:24:12;;;;;;;4.72;3.38;;;3.60;99.90;;;;;;4949654;28;20023;-59
2021/12/04 07:26:38;;;;;;;5.97;3.40;;;3.60;99.90;;;;;;4948113;28;20082;-59
2021/12/04 07:29:03;;;;;;;6.85;3.60;;;3.60;99.90;;;;;;4946476;28;20031;-59
2021/12/04 07:31:29;;;;;;;5.68;3.70;;;3.50;99.90;;;;;;4945235;28;20448;-60
2021/12/04 07:33:56;;;;;;;4.47;3.17;;;3.60;99.90;;;;;;4951275;28;20035;-56
2021/12/04 07:36:22;;;;;;;5.80;3.42;;;3.60;99.90;;;;;;4954952;28;20031;-59
2021/12/04 07:38:48;;;;;;;4.32;3.50;;;3.60;99.90;;;;;;4947516;28;20031;-60
2021/12/04 07:41:14;;;;;;;4.25;3.47;;;3.60;99.90;;;;;;4950938;28;20505;-60
2021/12/04 07:43:40;;;;;;;5.25;3.80;;;3.70;99.90;;;;;;4949218;28;20110;-58
2021/12/04 07:46:05;;;;;;;4.65;3.15;;;3.70;99.90;;;;;;4945332;28;20178;-57
2021/12/04 07:48:31;;;;;;;9.15;3.25;;;3.70;99.90;;;;;;4951306;28;20043;-60
2021/12/04 07:50:56;;;;;;;5.38;3.28;;;3.70;99.90;;;;;;4951126;28;20031;-59
2021/12/04 07:53:22;;;;;;;5.05;3.38;;;3.80;99.90;;;;;;4948836;28;20033;-59
2021/12/04 07:55:48;;;;;;;5.95;3.70;;;3.80;99.90;;;;;;4951890;28;20386;-59
2021/12/04 07:58:14;;;;;;;4.57;3.42;;;3.90;99.90;;;;;;4950002;28;20426;-54
2021/12/04 08:00:40;;;;;;;4.00;3.15;;;3.90;99.90;;;;;;4925702;28;20086;-56
2021/12/04 08:03:06;;;;;;;5.47;3.08;;;3.90;99.90;;;;;;4948626;28;20073;-58
2021/12/04 08:05:32;;;;;;;3.70;2.65;;;3.90;99.90;;;;;;4949011;28;20109;-58
2021/12/04 08:07:57;;;;;;;4.93;2.75;;;3.90;99.90;;;;;;4953138;28;20027;-59
2021/12/04 08:10:23;;;;;;;4.85;2.97;;;3.90;99.90;;;;;;4951277;28;20027;-59
2021/12/04 08:12:49;;;;;;;3.47;2.65;;;3.90;99.90;;;;;;4948060;28;20027;-59
2021/12/04 08:15:17;;;;;;;3.35;2.60;;;4.00;99.90;;;;;;4949037;28;20050;-59
2021/12/04 08:17:43;;;;;;;3.22;2.72;;;4.00;99.90;;;;;;4949997;28;20015;-58
2021/12/04 08:20:11;;;;;;;7.60;3.63;;;4.00;99.90;;;;;;4951329;28;20308;-59
2021/12/04 08:22:36;;;;;;;3.78;2.90;;;4.10;99.90;;;;;;4948384;28;20071;-58
2021/12/04 08:25:03;;;;;;;3.55;2.45;;;4.10;99.90;;;;;;4944559;28;20063;-59
2021/12/04 08:27:29;;;;;;;3.30;2.45;;;4.20;99.90;;;;;;4945299;28;20035;-59
2021/12/04 08:29:55;;;;;;;3.65;2.80;;;4.20;99.90;;;;;;4949651;28;20085;-59
2021/12/04 08:32:24;;;;;;;3.15;2.70;;;4.30;99.90;;;;;;4946707;28;20038;-59
2021/12/04 08:34:51;;;;;;;3.35;2.28;;;4.30;99.90;;;;;;4949691;28;20054;-57
2021/12/04 08:37:17;;;;;;;3.60;2.70;;;4.30;99.90;;;;;;4959672;28;20023;-59
2021/12/04 08:39:43;;;;;;;4.60;3.03;;;4.30;99.90;;;;;;4942644;28;20023;-59
2021/12/04 08:42:08;;;;;;;4.93;2.97;;;4.30;99.90;;;;;;4949809;28;20520;-59
2021/12/04 08:44:36;;;;;;;3.95;2.92;;;4.40;99.90;;;;;;4950229;28;20078;-57
2021/12/04 08:47:02;;;;;;;4.97;3.00;;;4.40;99.90;;;;;;4948031;28;20082;-59
2021/12/04 08:49:30;;;;;;;3.03;2.67;;;4.40;99.90;;;;;;4946347;28;20031;-58
2021/12/04 08:51:55;;;;;;;4.85;2.55;;;4.50;99.90;;;;;;4948929;28;20023;-59
2021/12/04 08:54:21;;;;;;;5.43;2.25;;;4.50;99.90;;;;;;4945017;28;20050;-58
2021/12/04 08:56:46;;;;;;;3.40;2.53;;;4.50;99.90;;;;;;4947609;28;20035;-58
2021/12/04 08:59:12;;;;;;;3.42;2.67;;;4.50;99.90;;;;;;4954134;28;20091;-58
2021/12/04 09:01:40;;;;;;;3.53;2.20;;;4.50;99.90;;;;;;4951109;28;20049;-59
2021/12/04 09:04:18;;;;;;;3.33;2.30;;;4.50;99.90;;;;;;4960334;28;20035;-59
2021/12/04 09:06:44;;;;;;;2.65;2.22;;;4.70;99.90;;;;;;4947436;28;20086;-55
2021/12/04 09:09:11;;;;;;;3.03;2.20;;;4.90;99.90;;;;;;4949307;28;20043;-59
2021/12/04 09:12:00;;;;;;;4.75;2.33;;;5.00;99.90;;;;;;4952895;28;20062;-56
2021/12/04 09:14:29;;;;;;;4.18;2.47;;;5.00;99.90;;;;;;4946802;28;20038;-57
2021/12/04 09:16:57;;;;;;;2.70;2.40;;;5.00;99.90;;;;;;4953437;28;20031;-59
2021/12/04 09:19:23;;;;;;;2.63;2.15;;;5.10;99.90;;;;;;4948504;28;20052;-57
2021/12/04 09:21:50;;;;;;;2.40;2.15;;;5.20;99.90;;;;;;4955543;28;20051;-58
2021/12/04 09:24:17;;;;;;;2.55;2.17;;;5.20;99.90;;;;;;4952084;28;20023;-58
2021/12/04 09:27:13;;;;;;;4.10;2.30;;;5.20;99.90;;;;;;4954334;28;20126;-59
2021/12/04 10:02:22;;;;;;;4.53;2.60;;;5.70;99.90;;;;;;4961325;28;20063;-55
2021/12/04 10:35:02;;;;;;;2.85;2.13;;;5.90;99.90;;;;;;4953365;28;20732;-59
2021/12/04 10:37:30;;;;;;;4.70;2.50;;;5.80;99.90;;;;;;4963134;28;20029;-59
2021/12/04 10:40:06;;;;;;;3.75;2.47;;;5.70;99.90;;;;;;4954624;28;20026;-59
2021/12/04 10:42:58;;;;;;;3.63;2.33;;;5.60;99.90;;;;;;4956921;28;20031;-59
2021/12/04 10:45:37;;;;;;;4.03;2.67;;;5.50;99.90;;;;;;4956771;28;20401;-58
2021/12/04 10:48:13;;;;;;;3.42;2.35;;;5.40;99.90;;;;;;4957564;28;20046;-60
2021/12/04 10:50:48;;;;;;;3.25;2.42;;;5.40;99.90;;;;;;4950268;28;20034;-59
2021/12/04 10:53:27;;;;;;;3.88;3.00;;;5.40;99.90;;;;;;4943198;28;20055;-60
2021/12/04 11:04:01;;;;;;;3.83;2.90;;;5.30;99.90;;;;;;4942462;28;20098;-59
2021/12/04 11:07:03;;;;;;;3.97;2.65;;;5.40;99.90;;;;;;4961182;28;20019;-59
2021/12/04 11:26:40;;;;;;;3.10;2.25;;;5.90;99.90;;;;;;4950515;28;20027;-60
2021/12/04 11:43:03;;;;;;;3.42;2.15;;;6.10;99.90;;;;;;4952310;28;20515;-60
2021/12/04 11:45:46;;;;;;;1.77;1.52;;;6.20;99.90;;;;;;4948605;28;20027;-60
2021/12/04 11:48:11;;;;;;;2.38;1.88;;;6.20;99.90;;;;;;4934690;28;20043;-60
2021/12/04 11:50:41;;;;;;;2.55;1.80;;;6.10;99.90;;;;;;4950102;28;20519;-59
2021/12/04 11:53:11;;;;;;;3.58;2.00;;;6.10;99.90;;;;;;4947815;28;20035;-60
2021/12/04 11:55:41;;;;;;;2.70;1.60;;;6.10;99.90;;;;;;4950418;28;20047;-59
2021/12/04 11:58:24;;;;;;;2.55;1.90;;;6.10;99.90;;;;;;4948192;28;20047;-60
2021/12/04 12:00:54;;;;;;;2.80;1.88;;;6.00;99.90;;;;;;4955167;28;20089;-60
2021/12/04 12:03:27;;;;;;;4.15;2.13;;;5.90;99.90;;;;;;4954738;28;20540;-60
2021/12/04 12:05:59;;;;;;;2.92;1.83;;;5.80;99.90;;;;;;4954244;28;20494;-61
2021/12/04 12:08:29;;;;;;;2.28;1.80;;;5.80;99.90;;;;;;4941366;28;20125;-60
2021/12/04 12:11:02;;;;;;;2.85;2.17;;;5.80;99.90;;;;;;4951546;28;20103;-59
2021/12/04 12:13:37;;;;;;;2.45;2.00;;;5.90;99.90;;;;;;4953000;28;20389;-60
2021/12/04 12:16:14;;;;;;;2.38;1.95;;;5.90;99.90;;;;;;4953180;28;20019;-60
2021/12/04 12:18:52;;;;;;;2.05;1.48;;;5.90;99.90;;;;;;4955630;28;20099;-59
2021/12/04 12:21:22;;;;;;;2.50;1.83;;;5.80;99.90;;;;;;4953897;28;20397;-60
2021/12/04 12:32:50;;;;;;;3.65;2.15;;;5.70;99.90;;;;;;4950588;28;20078;-59
2021/12/04 12:37:53;;;;;;;2.83;2.08;;;5.50;99.90;;;;;;4946882;28;20047;-59
2021/12/04 12:40:27;;;;;;;3.08;2.05;;;5.60;99.90;;;;;;4960414;28;20023;-59
2021/12/04 12:42:53;;;;;;;3.20;1.70;;;5.50;99.90;;;;;;4959941;28;20023;-60
2021/12/04 12:45:29;;;;;;;2.78;1.95;;;5.60;99.90;;;;;;4955272;28;20074;-59
2021/12/04 12:47:58;;;;;;;2.75;2.20;;;5.60;99.90;;;;;;4949314;28;20030;-61
2021/12/04 12:50:39;;;;;;;3.50;2.25;;;5.70;99.90;;;;;;4952402;28;20551;-61
2021/12/04 12:53:12;;;;;;;4.03;1.80;;;5.60;99.90;;;;;;4954291;28;20039;-59
2021/12/04 12:55:38;;;;;;;2.70;1.90;;;5.60;99.90;;;;;;4955012;28;20034;-60
2021/12/04 12:58:30;;;;;;;2.70;1.45;;;5.60;99.90;;;;;;4948774;28;20027;-61
2021/12/04 13:12:14;;;;;;;3.03;2.15;;;5.50;99.90;;;;;;4956258;28;20605;-61
2021/12/04 13:14:42;;;;;;;2.90;1.77;;;5.40;99.90;;;;;;4955315;28;20018;-61
2021/12/04 13:17:10;;;;;;;2.47;1.55;;;5.40;99.90;;;;;;4959585;28;20025;-61
2021/12/04 13:19:42;;;;;;;3.72;2.10;;;5.40;99.90;;;;;;4965849;28;20485;-59
2021/12/04 13:22:13;;;;;;;3.35;1.88;;;5.40;99.90;;;;;;4962215;28;20019;-61
2021/12/04 13:24:40;;;;;;;8.75;4.70;;;5.40;99.90;;;;;;4955978;28;20042;-61
2021/12/04 13:29:57;;;;;;;16.33;7.57;;;5.40;99.90;;;;;;4966937;28;20041;-61
2021/12/04 13:32:32;;;;;;;7.55;3.88;;;5.30;99.90;;;;;;4951776;28;20055;-60
2021/12/04 13:35:11;;;;;;;7.97;4.13;;;5.30;99.90;;;;;;4950481;28;20433;-61
2021/12/04 13:37:38;;;;;;;6.93;3.53;;;5.30;99.90;;;;;;4951835;28;20117;-59
2021/12/04 13:40:07;;;;;;;4.75;2.15;;;5.40;99.90;;;;;;4952141;28;20033;-61
2021/12/04 13:42:33;;;;;;;4.13;2.35;;;5.30;99.90;;;;;;4956991;28;20102;-62
2021/12/04 13:45:09;;;;;;;5.72;3.45;;;5.30;99.90;;;;;;4956021;28;20019;-62
2021/12/04 13:47:36;;;;;;;5.57;3.33;;;5.30;99.90;;;;;;4956695;28;20114;-62
2021/12/04 13:50:20;;;;;;;3.20;2.13;;;5.30;99.90;;;;;;4950494;28;20038;-60
2021/12/04 13:52:46;;;;;;;;;;;5.40;99.90;;;;;;4952322;28;20523;-61
2021/12/04 13:55:13;;;;;;;2.72;1.70;;;5.40;99.90;;;;;;4962490;28;19910;-62
2021/12/04 13:57:42;;;;;;;5.35;2.28;;;5.40;99.90;;;;;;4958663;28;20432;-60
2021/12/04 14:00:13;;;;;;;4.30;2.05;;;5.50;99.90;;;;;;4957101;28;20370;-60
2021/12/04 14:02:39;;;;;;;3.60;2.15;;;5.50;99.90;;;;;;4965134;28;20746;-59
2021/12/04 14:05:14;;;;;;;3.15;2.38;;;5.60;99.90;;;;;;4954667;28;20031;-58
2021/12/04 14:08:00;;;;;;;3.55;2.22;;;5.40;99.90;;;;;;4967269;28;20849;-59
2021/12/04 14:10:30;;;;;;;5.78;3.45;;;5.50;99.90;;;;;;4956559;28;20508;-60
2021/12/04 14:12:57;;;;;;;4.15;2.40;;;5.50;99.90;;;;;;4960655;28;20027;-60
2021/12/04 14:15:24;;;;;;;4.32;2.30;;;5.50;99.90;;;;;;4954188;28;20027;-60
2021/12/04 14:17:55;;;;;;;3.25;2.13;;;5.50;99.90;;;;;;4957149;28;20027;-60
2021/12/04 14:20:23;;;;;;;3.00;2.10;;;5.40;99.90;;;;;;4952339;28;20488;-59
2021/12/04 14:22:51;;;;;;;3.08;2.35;;;5.50;99.90;;;;;;4949838;28;20034;-58
2021/12/04 14:25:19;;;;;;;2.70;2.20;;;5.40;99.90;;;;;;4953001;28;20513;-60
2021/12/04 14:27:46;;;;;;;2.92;1.90;;;5.50;99.90;;;;;;4949735;28;20031;-59
2021/12/04 14:30:18;;;;;;;3.22;2.30;;;5.50;99.90;;;;;;4951086;28;20051;-59
2021/12/04 14:32:50;;;;;;;5.32;3.30;;;5.40;99.90;;;;;;4952973;28;20038;-57
2021/12/04 14:35:17;;;;;;;4.40;2.92;;;5.30;99.90;;;;;;4952398;28;20066;-60
2021/12/04 14:37:47;;;;;;;5.45;2.58;;;5.30;99.90;;;;;;4953973;28;20023;-58
2021/12/04 14:40:17;;;;;;;3.75;2.55;;;5.30;99.90;;;;;;4952706;28;20019;-60
2021/12/04 14:42:44;;;;;;;3.97;2.78;;;5.20;99.90;;;;;;4954881;28;20029;-59
2021/12/04 14:45:22;;;;;;;3.42;2.50;;;5.20;99.90;;;;;;4958190;28;20047;-60
2021/12/04 14:47:54;;;;;;;3.08;2.50;;;5.10;99.90;;;;;;4955349;28;20050;-60
2021/12/04 14:50:21;;;;;;;4.03;2.95;;;5.10;99.90;;;;;;4964916;28;20377;-56
2021/12/04 14:52:52;;;;;;;4.10;3.15;;;5.00;99.90;;;;;;4957795;28;20027;-60
2021/12/04 14:55:33;;;;;;;3.95;3.00;;;5.00;99.90;;;;;;4966358;28;20426;-60
2021/12/04 14:58:00;;;;;;;6.32;3.60;;;5.00;99.90;;;;;;4951061;28;20043;-58
2021/12/04 15:00:31;;;;;;;4.95;3.10;;;4.90;99.90;;;;;;4952976;28;20425;-59
2021/12/04 15:03:16;;;;;;;6.80;2.92;;;4.90;99.90;;;;;;4965476;28;20491;-58
2021/12/04 15:05:46;;;;;;;4.63;3.40;;;4.80;99.90;;;;;;4959015;28;20018;-58
2021/12/04 15:08:19;;;;;;;5.57;3.35;;;4.80;99.90;;;;;;4966163;28;20054;-60
2021/12/04 15:11:30;;;;;;;6.70;3.28;;;4.80;99.90;;;;;;4958349;28;20027;-59
2021/12/04 15:14:13;;;;;;;5.35;3.63;;;4.80;99.90;;;;;;4952640;28;20031;-59
2021/12/04 15:16:50;;;;;;;5.50;3.83;;;4.70;99.90;;;;;;4950993;28;20070;-59
2021/12/04 15:19:19;;;;;;;5.32;4.05;;;4.70;99.90;;;;;;4954296;28;20267;-60
2021/12/04 15:21:51;;;;;;;5.85;4.32;;;4.70;99.90;;;;;;4950743;28;20022;-59
2021/12/04 15:24:22;;;;;;;7.22;3.90;;;4.70;99.90;;;;;;4964177;28;20026;-55
2021/12/04 15:26:54;;;;;;;6.13;4.30;;;4.70;99.90;;;;;;4952360;28;20556;-58
2021/12/04 15:29:23;;;;;;;6.35;4.47;;;4.60;99.90;;;;;;4951688;28;20110;-59
2021/12/04 15:31:50;;;;;;;5.00;3.70;;;4.60;99.90;;;;;;4946093;28;20027;-60
2021/12/04 15:34:16;;;;;;;5.80;4.40;;;4.60;99.90;;;;;;4948872;28;20035;-58
2021/12/04 15:36:46;;;;;;;5.00;3.50;;;4.60;99.90;;;;;;4951284;28;20027;-60
2021/12/04 15:39:27;;;;;;;5.97;4.30;;;4.60;99.90;;;;;;4953236;28;20070;-59
2021/12/04 15:53:13;;;;;;;10.52;6.88;;;4.60;99.90;;;;;;4948318;28;20105;-59
2021/12/04 15:55:53;;;;;;;9.15;6.55;;;4.60;99.90;;;;;;4954739;28;20499;-60
2021/12/04 15:58:22;;;;;;;18.17;9.73;;;4.60;99.90;;;;;;4951812;28;20486;-59
2021/12/04 16:00:54;;;;;;;12.70;7.50;;;4.50;99.90;;;;;;4951296;28;20034;-58
2021/12/04 16:03:22;;;;;;;11.43;6.60;;;4.50;99.90;;;;;;4951167;28;20067;-59
2021/12/04 16:05:54;;;;;;;8.68;6.75;;;4.60;99.90;;;;;;4933237;28;20564;-59
2021/12/04 16:08:29;;;;;;;15.00;10.65;;;4.60;99.90;;;;;;4950517;28;20039;-58
2021/12/04 16:10:56;;;;;;;10.88;8.32;;;4.60;99.90;;;;;;4958248;28;20023;-59
2021/12/04 16:13:30;;;;;;;11.80;7.82;;;4.50;99.90;;;;;;4951380;28;20805;-59
2021/12/04 16:15:57;;;;;;;13.02;8.43;;;4.60;99.90;;;;;;4949965;28;20027;-60
2021/12/04 16:18:24;;;;;;;8.35;6.50;;;4.60;99.90;;;;;;4956055;28;20031;-59
2021/12/04 16:20:50;;;;;;;8.27;5.43;;;4.60;99.90;;;;;;4951825;28;20027;-58
2021/12/04 16:23:17;;;;;;;6.10;4.43;;;4.60;99.90;;;;;;4948970;28;20035;-60
2021/12/04 16:25:43;;;;;;;5.15;3.80;;;4.50;99.90;;;;;;4954751;28;20030;-59
2021/12/04 16:33:42;;;;;;;13.60;7.85;;;4.40;99.90;;;;;;4948686;28;20477;-58
2021/12/04 16:36:20;;;;;;;5.22;3.25;;;4.40;99.90;;;;;;4954691;28;20039;-59
2021/12/04 16:38:47;;;;;;;8.30;5.22;;;4.40;99.90;;;;;;4962051;28;20038;-59